Conceicao da Aparecida, Brazil
Current Conditions -  °F | °C
As of 7:00 PM on Monday 22 Dec 2014 (Local Time) from SBYS Reporting Station
Thunderstorm Thunderstorm  
Wind Chill: 77°   Ceiling: 3000
Heat Index: 78°   Visibility: 5mi
Dew Point: 72°   Wind: 14mph
Humidity: 83%   Direction: 50°NE
Pressure: NA   Gusts: NA
Location:  21.09°S, 46.2°W
Report Text: SBYS 222100Z 05012KT 8000 -TSRA BKN030 FEW040CB BKN100 25/22 Q1012
Loading
Personal Weather Stations






























Interactive Weather Map New forecast layout! Learn more

10-Day Weather Forecast

Advertisements
Track Severe Weather on mobile